sensor_id;sensor_type;location;lat;lon;timestamp;pressure;altitude;pressure_sealevel;temperature;humidity
55032;BME280;40928;51.076;7.950;2023-02-05T00:02:01;98967.63;;;0.53;100.00
55032;BME280;40928;51.076;7.950;2023-02-05T00:04:27;98957.09;;;0.53;100.00
55032;BME280;40928;51.076;7.950;2023-02-05T00:06:52;98960.84;;;0.50;100.00
55032;BME280;40928;51.076;7.950;2023-02-05T00:09:18;98946.72;;;0.51;100.00
55032;BME280;40928;51.076;7.950;2023-02-05T00:11:43;98955.06;;;0.56;100.00
55032;BME280;40928;51.076;7.950;2023-02-05T00:14:09;98963.66;;;0.58;100.00
55032;BME280;40928;51.076;7.950;2023-02-05T00:16:35;98959.97;;;0.61;100.00
55032;BME280;40928;51.076;7.950;2023-02-05T00:19:01;98951.94;;;0.63;100.00
55032;BME280;40928;51.076;7.950;2023-02-05T00:21:26;98944.84;;;0.63;100.00
55032;BME280;40928;51.076;7.950;2023-02-05T00:23:52;98939.75;;;0.62;100.00
55032;BME280;40928;51.076;7.950;2023-02-05T00:26:18;98946.53;;;0.64;100.00
55032;BME280;40928;51.076;7.950;2023-02-05T00:28:44;98927.22;;;0.54;100.00
55032;BME280;40928;51.076;7.950;2023-02-05T00:31:16;98947.84;;;0.70;100.00
55032;BME280;40928;51.076;7.950;2023-02-05T00:33:42;98940.31;;;0.65;100.00
55032;BME280;40928;51.076;7.950;2023-02-05T00:36:09;98931.47;;;0.66;100.00
55032;BME280;40928;51.076;7.950;2023-02-05T00:38:36;98938.41;;;0.67;100.00
55032;BME280;40928;51.076;7.950;2023-02-05T00:41:02;98926.66;;;0.71;100.00
55032;BME280;40928;51.076;7.950;2023-02-05T00:43:29;98927.81;;;0.79;100.00
55032;BME280;40928;51.076;7.950;2023-02-05T00:45:55;98919.66;;;0.82;100.00
55032;BME280;40928;51.076;7.950;2023-02-05T00:48:20;98909.75;;;0.85;100.00
55032;BME280;40928;51.076;7.950;2023-02-05T00:50:50;98905.28;;;0.86;100.00
55032;BME280;40928;51.076;7.950;2023-02-05T00:53:17;98890.34;;;0.86;100.00
55032;BME280;40928;51.076;7.950;2023-02-05T00:55:43;98896.44;;;0.87;100.00
55032;BME280;40928;51.076;7.950;2023-02-05T00:58:09;98880.81;;;0.85;100.00
55032;BME280;40928;51.076;7.950;2023-02-05T01:00:34;98894.25;;;0.92;100.00
55032;BME280;40928;51.076;7.950;2023-02-05T01:03:00;98904.78;;;0.92;100.00
55032;BME280;40928;51.076;7.950;2023-02-05T01:05:26;98900.75;;;0.88;100.00
55032;BME280;40928;51.076;7.950;2023-02-05T01:07:52;98895.47;;;0.88;100.00
55032;BME280;40928;51.076;7.950;2023-02-05T01:10:18;98891.88;;;0.89;100.00
55032;BME280;40928;51.076;7.950;2023-02-05T01:12:44;98875.97;;;0.90;100.00
55032;BME280;40928;51.076;7.950;2023-02-05T01:15:11;98883.03;;;0.90;100.00
55032;BME280;40928;51.076;7.950;2023-02-05T01:17:37;98884.81;;;0.89;100.00
55032;BME280;40928;51.076;7.950;2023-02-05T01:20:04;98871.91;;;0.86;100.00
55032;BME280;40928;51.076;7.950;2023-02-05T01:22:30;98855.31;;;0.86;100.00
55032;BME280;40928;51.076;7.950;2023-02-05T01:24:56;98860.31;;;0.89;100.00
55032;BME280;40928;51.076;7.950;2023-02-05T01:27:22;98862.00;;;0.90;100.00
55032;BME280;40928;51.076;7.950;2023-02-05T01:29:49;98854.81;;;0.92;100.00
55032;BME280;40928;51.076;7.950;2023-02-05T01:32:15;98860.06;;;0.92;100.00
55032;BME280;40928;51.076;7.950;2023-02-05T01:34:43;98859.78;;;0.95;100.00
55032;BME280;40928;51.076;7.950;2023-02-05T01:37:09;98844.16;;;0.94;100.00
55032;BME280;40928;51.076;7.950;2023-02-05T01:39:35;98847.47;;;0.96;100.00
55032;BME280;40928;51.076;7.950;2023-02-05T01:42:03;98848.03;;;0.99;100.00
55032;BME280;40928;51.076;7.950;2023-02-05T01:44:29;98838.06;;;1.03;100.00
55032;BME280;40928;51.076;7.950;2023-02-05T01:46:55;98836.75;;;1.09;100.00
55032;BME280;40928;51.076;7.950;2023-02-05T01:49:29;98847.13;;;1.10;100.00
55032;BME280;40928;51.076;7.950;2023-02-05T01:51:59;98850.84;;;1.08;100.00
55032;BME280;40928;51.076;7.950;2023-02-05T01:54:29;98837.81;;;1.06;100.00
55032;BME280;40928;51.076;7.950;2023-02-05T01:57:02;98835.44;;;1.03;100.00
55032;BME280;40928;51.076;7.950;2023-02-05T01:59:33;98830.06;;;1.04;100.00
55032;BME280;40928;51.076;7.950;2023-02-05T02:02:00;98822.28;;;1.03;100.00
55032;BME280;40928;51.076;7.950;2023-02-05T02:04:38;98823.13;;;1.03;100.00
55032;BME280;40928;51.076;7.950;2023-02-05T02:07:07;98828.41;;;1.03;100.00
55032;BME280;40928;51.076;7.950;2023-02-05T02:09:34;98830.06;;;1.04;100.00
55032;BME280;40928;51.076;7.950;2023-02-05T02:12:01;98829.94;;;1.06;100.00
55032;BME280;40928;51.076;7.950;2023-02-05T02:14:30;98830.78;;;1.06;100.00
55032;BME280;40928;51.076;7.950;2023-02-05T02:16:58;98822.44;;;1.01;100.00
55032;BME280;40928;51.076;7.950;2023-02-05T02:31:10;98808.47;;;1.11;100.00
55032;BME280;40928;51.076;7.950;2023-02-05T02:33:49;98812.91;;;1.10;100.00
55032;BME280;40928;51.076;7.950;2023-02-05T02:37:06;98813.47;;;1.14;100.00
55032;BME280;40928;51.076;7.950;2023-02-05T02:39:15;98814.31;;;1.14;100.00
55032;BME280;40928;51.076;7.950;2023-02-05T02:44:26;98806.84;;;1.19;100.00
55032;BME280;40928;51.076;7.950;2023-02-05T02:46:56;98810.03;;;1.23;100.00
55032;BME280;40928;51.076;7.950;2023-02-05T02:49:32;98805.47;;;1.25;100.00
55032;BME280;40928;51.076;7.950;2023-02-05T02:52:03;98814.34;;;1.24;100.00
55032;BME280;40928;51.076;7.950;2023-02-05T02:54:31;98815.44;;;1.21;100.00
55032;BME280;40928;51.076;7.950;2023-02-05T02:56:58;98820.84;;;1.20;100.00
55032;BME280;40928;51.076;7.950;2023-02-05T02:59:28;98826.22;;;1.18;100.00
55032;BME280;40928;51.076;7.950;2023-02-05T03:02:00;98829.69;;;1.19;100.00
55032;BME280;40928;51.076;7.950;2023-02-05T03:04:35;98814.03;;;1.17;100.00
55032;BME280;40928;51.076;7.950;2023-02-05T03:07:18;98824.16;;;1.22;100.00
55032;BME280;40928;51.076;7.950;2023-02-05T03:09:50;98825.44;;;1.28;100.00
55032;BME280;40928;51.076;7.950;2023-02-05T03:12:18;98816.16;;;1.33;100.00
55032;BME280;40928;51.076;7.950;2023-02-05T03:14:44;98817.69;;;1.36;100.00
55032;BME280;40928;51.076;7.950;2023-02-05T03:17:11;98823.78;;;1.36;100.00
55032;BME280;40928;51.076;7.950;2023-02-05T03:19:47;98831.44;;;1.40;100.00
55032;BME280;40928;51.076;7.950;2023-02-05T03:22:16;98839.31;;;1.40;100.00
55032;BME280;40928;51.076;7.950;2023-02-05T03:24:41;98825.47;;;1.38;100.00
55032;BME280;40928;51.076;7.950;2023-02-05T03:27:07;98814.09;;;1.37;100.00
55032;BME280;40928;51.076;7.950;2023-02-05T03:29:36;98811.44;;;1.37;100.00
55032;BME280;40928;51.076;7.950;2023-02-05T03:43:15;98799.41;;;1.44;100.00
55032;BME280;40928;51.076;7.950;2023-02-05T03:49:06;98785.53;;;1.32;100.00
55032;BME280;40928;51.076;7.950;2023-02-05T03:56:59;98782.22;;;1.40;100.00
55032;BME280;40928;51.076;7.950;2023-02-05T03:59:26;98778.47;;;1.43;100.00
55032;BME280;40928;51.076;7.950;2023-02-05T04:01:53;98770.31;;;1.46;100.00
55032;BME280;40928;51.076;7.950;2023-02-05T04:04:20;98752.56;;;1.38;100.00
55032;BME280;40928;51.076;7.950;2023-02-05T04:06:48;98777.41;;;1.45;100.00
55032;BME280;40928;51.076;7.950;2023-02-05T04:09:14;98776.97;;;1.50;100.00
55032;BME280;40928;51.076;7.950;2023-02-05T04:11:40;98772.25;;;1.54;100.00
55032;BME280;40928;51.076;7.950;2023-02-05T04:14:06;98779.34;;;1.53;100.00
55032;BME280;40928;51.076;7.950;2023-02-05T04:16:33;98777.00;;;1.60;100.00
55032;BME280;40928;51.076;7.950;2023-02-05T04:18:59;98770.59;;;1.52;100.00
55032;BME280;40928;51.076;7.950;2023-02-05T04:21:26;98763.13;;;1.48;100.00
55032;BME280;40928;51.076;7.950;2023-02-05T04:23:52;98760.47;;;1.48;100.00
55032;BME280;40928;51.076;7.950;2023-02-05T04:26:18;98770.03;;;1.49;100.00
55032;BME280;40928;51.076;7.950;2023-02-05T04:28:54;98772.53;;;1.50;100.00
55032;BME280;40928;51.076;7.950;2023-02-05T04:31:19;98763.81;;;1.50;100.00
55032;BME280;40928;51.076;7.950;2023-02-05T04:33:46;98772.53;;;1.50;100.00
55032;BME280;40928;51.076;7.950;2023-02-05T04:36:13;98767.25;;;1.50;100.00
55032;BME280;40928;51.076;7.950;2023-02-05T04:38:39;98773.66;;;1.48;100.00
55032;BME280;40928;51.076;7.950;2023-02-05T04:41:04;98769.63;;;1.44;100.00
55032;BME280;40928;51.076;7.950;2023-02-05T04:43:30;98783.63;;;1.44;100.00
55032;BME280;40928;51.076;7.950;2023-02-05T04:45:55;98792.06;;;1.48;100.00
55032;BME280;40928;51.076;7.950;2023-02-05T04:48:21;98781.00;;;1.44;100.00
55032;BME280;40928;51.076;7.950;2023-02-05T04:50:47;98789.16;;;1.51;100.00
55032;BME280;40928;51.076;7.950;2023-02-05T04:53:13;98783.63;;;1.54;100.00
55032;BME280;40928;51.076;7.950;2023-02-05T04:55:38;98791.66;;;1.52;100.00
55032;BME280;40928;51.076;7.950;2023-02-05T04:58:04;98793.19;;;1.55;100.00
55032;BME280;40928;51.076;7.950;2023-02-05T05:00:30;98792.34;;;1.55;100.00
55032;BME280;40928;51.076;7.950;2023-02-05T05:02:56;98780.03;;;1.55;100.00
55032;BME280;40928;51.076;7.950;2023-02-05T05:05:21;98771.44;;;1.53;100.00
55032;BME280;40928;51.076;7.950;2023-02-05T05:07:47;98774.47;;;1.58;100.00
55032;BME280;40928;51.076;7.950;2023-02-05T05:10:13;98776.13;;;1.59;100.00
55032;BME280;40928;51.076;7.950;2023-02-05T05:12:39;98774.63;;;1.66;100.00
55032;BME280;40928;51.076;7.950;2023-02-05T05:15:05;98784.19;;;1.67;100.00
55032;BME280;40928;51.076;7.950;2023-02-05T05:17:32;98778.09;;;1.67;100.00
55032;BME280;40928;51.076;7.950;2023-02-05T05:19:59;98795.56;;;1.68;100.00
55032;BME280;40928;51.076;7.950;2023-02-05T05:22:24;98779.19;;;1.64;100.00
55032;BME280;40928;51.076;7.950;2023-02-05T05:24:50;98781.97;;;1.63;100.00
55032;BME280;40928;51.076;7.950;2023-02-05T05:27:16;98780.72;;;1.67;100.00
55032;BME280;40928;51.076;7.950;2023-02-05T05:29:44;98774.75;;;1.65;100.00
55032;BME280;40928;51.076;7.950;2023-02-05T05:32:11;98772.97;;;1.65;100.00
55032;BME280;40928;51.076;7.950;2023-02-05T05:34:37;98764.09;;;1.66;100.00
55032;BME280;40928;51.076;7.950;2023-02-05T05:37:03;98766.84;;;1.75;100.00
55032;BME280;40928;51.076;7.950;2023-02-05T05:39:28;98760.50;;;1.77;100.00
55032;BME280;40928;51.076;7.950;2023-02-05T05:42:12;98763.69;;;1.81;100.00
55032;BME280;40928;51.076;7.950;2023-02-05T05:44:56;98760.34;;;1.89;100.00
55032;BME280;40928;51.076;7.950;2023-02-05T05:47:21;98758.69;;;1.88;100.00
55032;BME280;40928;51.076;7.950;2023-02-05T05:49:47;98766.16;;;1.92;100.00
55032;BME280;40928;51.076;7.950;2023-02-05T05:52:13;98756.31;;;1.94;100.00
55032;BME280;40928;51.076;7.950;2023-02-05T05:54:38;98757.69;;;1.98;100.00
55032;BME280;40928;51.076;7.950;2023-02-05T05:57:06;98746.72;;;2.03;100.00
55032;BME280;40928;51.076;7.950;2023-02-05T05:59:32;98752.28;;;2.10;100.00
55032;BME280;40928;51.076;7.950;2023-02-05T06:01:59;98749.34;;;2.13;100.00
55032;BME280;40928;51.076;7.950;2023-02-05T06:04:25;98737.00;;;2.13;100.00
55032;BME280;40928;51.076;7.950;2023-02-05T06:06:50;98741.16;;;2.16;100.00
55032;BME280;40928;51.076;7.950;2023-02-05T06:09:16;98741.56;;;2.21;100.00
55032;BME280;40928;51.076;7.950;2023-02-05T06:11:41;98742.78;;;2.27;100.00
55032;BME280;40928;51.076;7.950;2023-02-05T06:14:07;98748.63;;;2.31;100.00
55032;BME280;40928;51.076;7.950;2023-02-05T06:16:32;98749.16;;;2.34;100.00
55032;BME280;40928;51.076;7.950;2023-02-05T06:18:58;98754.16;;;2.37;100.00
55032;BME280;40928;51.076;7.950;2023-02-05T06:21:24;98760.94;;;2.40;100.00
55032;BME280;40928;51.076;7.950;2023-02-05T06:23:49;98768.84;;;2.40;100.00
55032;BME280;40928;51.076;7.950;2023-02-05T06:26:15;98766.91;;;2.42;100.00
55032;BME280;40928;51.076;7.950;2023-02-05T06:28:41;98767.72;;;2.42;100.00
55032;BME280;40928;51.076;7.950;2023-02-05T06:31:06;98760.13;;;2.39;100.00
55032;BME280;40928;51.076;7.950;2023-02-05T06:33:32;98757.31;;;2.41;100.00
55032;BME280;40928;51.076;7.950;2023-02-05T06:35:58;98744.75;;;2.25;100.00
55032;BME280;40928;51.076;7.950;2023-02-05T06:38:23;98746.38;;;2.26;100.00
55032;BME280;40928;51.076;7.950;2023-02-05T06:40:48;98724.47;;;2.25;100.00
55032;BME280;40928;51.076;7.950;2023-02-05T06:43:14;98729.22;;;2.22;100.00
55032;BME280;40928;51.076;7.950;2023-02-05T06:45:40;98736.00;;;2.24;100.00
55032;BME280;40928;51.076;7.950;2023-02-05T06:48:05;98740.84;;;2.29;100.00
55032;BME280;40928;51.076;7.950;2023-02-05T06:50:31;98740.56;;;2.32;100.00
55032;BME280;40928;51.076;7.950;2023-02-05T06:52:57;98740.41;;;2.34;100.00
55032;BME280;40928;51.076;7.950;2023-02-05T06:55:22;98736.78;;;2.35;100.00
55032;BME280;40928;51.076;7.950;2023-02-05T06:57:48;98729.19;;;2.32;100.00
55032;BME280;40928;51.076;7.950;2023-02-05T07:00:14;98731.53;;;2.35;100.00
55032;BME280;40928;51.076;7.950;2023-02-05T07:02:40;98726.81;;;2.38;100.00
55032;BME280;40928;51.076;7.950;2023-02-05T07:05:06;98726.66;;;2.40;100.00
55032;BME280;40928;51.076;7.950;2023-02-05T07:07:31;98715.97;;;2.41;100.00
55032;BME280;40928;51.076;7.950;2023-02-05T07:09:58;98719.16;;;2.45;100.00
55032;BME280;40928;51.076;7.950;2023-02-05T07:12:24;98712.75;;;2.48;100.00
55032;BME280;40928;51.076;7.950;2023-02-05T07:14:49;98717.06;;;2.49;100.00
55032;BME280;40928;51.076;7.950;2023-02-05T07:17:15;98712.75;;;2.48;100.00
55032;BME280;40928;51.076;7.950;2023-02-05T07:19:41;98714.16;;;2.42;100.00
55032;BME280;40928;51.076;7.950;2023-02-05T07:22:06;98719.97;;;2.46;100.00
55032;BME280;40928;51.076;7.950;2023-02-05T07:24:32;98716.09;;;2.50;100.00
55032;BME280;40928;51.076;7.950;2023-02-05T07:26:58;98731.75;;;2.51;100.00
55032;BME280;40928;51.076;7.950;2023-02-05T07:29:23;98729.09;;;2.51;100.00
55032;BME280;40928;51.076;7.950;2023-02-05T07:31:49;98721.88;;;2.53;100.00
55032;BME280;40928;51.076;7.950;2023-02-05T07:34:15;98725.50;;;2.52;100.00
55032;BME280;40928;51.076;7.950;2023-02-05T07:36:41;98726.06;;;2.56;100.00
55032;BME280;40928;51.076;7.950;2023-02-05T07:39:06;98713.69;;;2.56;100.00
55032;BME280;40928;51.076;7.950;2023-02-05T07:41:32;98717.72;;;2.61;100.00
55032;BME280;40928;51.076;7.950;2023-02-05T07:43:57;98709.50;;;2.64;100.00
55032;BME280;40928;51.076;7.950;2023-02-05T07:46:23;98710.16;;;2.66;100.00
55032;BME280;40928;51.076;7.950;2023-02-05T07:48:49;98704.06;;;2.65;100.00
55032;BME280;40928;51.076;7.950;2023-02-05T07:51:22;98701.59;;;2.64;100.00
55032;BME280;40928;51.076;7.950;2023-02-05T07:53:49;98702.25;;;2.66;100.00
55032;BME280;40928;51.076;7.950;2023-02-05T07:56:15;98695.88;;;2.68;100.00
55032;BME280;40928;51.076;7.950;2023-02-05T07:58:41;98691.13;;;2.72;100.00
55032;BME280;40928;51.076;7.950;2023-02-05T08:01:07;98684.88;;;2.73;100.00
55032;BME280;40928;51.076;7.950;2023-02-05T08:03:33;98694.28;;;2.76;100.00
55032;BME280;40928;51.076;7.950;2023-02-05T08:06:03;98696.94;;;2.76;100.00
55032;BME280;40928;51.076;7.950;2023-02-05T08:08:29;98698.47;;;2.78;100.00
55032;BME280;40928;51.076;7.950;2023-02-05T08:11:00;98698.16;;;2.81;100.00
55032;BME280;40928;51.076;7.950;2023-02-05T08:13:27;98698.84;;;2.83;100.00
55032;BME280;40928;51.076;7.950;2023-02-05T08:15:53;98697.84;;;2.84;100.00
55032;BME280;40928;51.076;7.950;2023-02-05T08:18:18;98692.59;;;2.84;100.00
55032;BME280;40928;51.076;7.950;2023-02-05T08:20:44;98698.25;;;2.89;100.00
55032;BME280;40928;51.076;7.950;2023-02-05T08:23:10;98700.72;;;2.91;100.00
55032;BME280;40928;51.076;7.950;2023-02-05T08:25:39;98691.03;;;2.92;100.00
55032;BME280;40928;51.076;7.950;2023-02-05T08:28:07;98694.47;;;2.92;100.00
55032;BME280;40928;51.076;7.950;2023-02-05T08:30:33;98697.00;;;2.94;100.00
55032;BME280;40928;51.076;7.950;2023-02-05T08:32:58;98697.50;;;2.97;100.00
55032;BME280;40928;51.076;7.950;2023-02-05T08:35:24;98686.28;;;2.95;100.00
55032;BME280;40928;51.076;7.950;2023-02-05T08:37:49;98694.03;;;2.97;100.00
55032;BME280;40928;51.076;7.950;2023-02-05T08:40:15;98688.63;;;2.98;100.00
55032;BME280;40928;51.076;7.950;2023-02-05T08:42:41;98689.59;;;2.97;100.00
55032;BME280;40928;51.076;7.950;2023-02-05T08:45:07;98687.78;;;2.98;100.00
55032;BME280;40928;51.076;7.950;2023-02-05T08:47:39;98686.78;;;2.99;100.00
55032;BME280;40928;51.076;7.950;2023-02-05T08:50:05;98682.19;;;3.01;100.00
55032;BME280;40928;51.076;7.950;2023-02-05T08:52:34;98673.31;;;3.02;100.00
55032;BME280;40928;51.076;7.950;2023-02-05T08:55:00;98683.56;;;3.05;100.00
55032;BME280;40928;51.076;7.950;2023-02-05T08:57:27;98664.03;;;2.98;100.00
55032;BME280;40928;51.076;7.950;2023-02-05T08:59:53;98674.69;;;3.06;100.00
55032;BME280;40928;51.076;7.950;2023-02-05T09:02:20;98660.78;;;3.04;100.00
55032;BME280;40928;51.076;7.950;2023-02-05T09:04:45;98659.53;;;3.08;100.00
55032;BME280;40928;51.076;7.950;2023-02-05T09:07:17;98657.69;;;3.09;100.00
55032;BME280;40928;51.076;7.950;2023-02-05T09:09:45;98657.25;;;3.13;100.00
55032;BME280;40928;51.076;7.950;2023-02-05T09:12:11;98648.50;;;3.13;100.00
55032;BME280;40928;51.076;7.950;2023-02-05T09:14:37;98652.66;;;3.15;100.00
55032;BME280;40928;51.076;7.950;2023-02-05T09:17:08;98649.03;;;3.16;100.00
55032;BME280;40928;51.076;7.950;2023-02-05T09:19:35;98653.19;;;3.19;100.00
55032;BME280;40928;51.076;7.950;2023-02-05T09:22:01;98652.06;;;3.22;100.00
55032;BME280;40928;51.076;7.950;2023-02-05T09:24:27;98648.72;;;3.19;100.00
55032;BME280;40928;51.076;7.950;2023-02-05T09:26:53;98651.75;;;3.25;100.00
55032;BME280;40928;51.076;7.950;2023-02-05T09:29:19;98652.19;;;3.20;100.00
55032;BME280;40928;51.076;7.950;2023-02-05T09:31:44;98642.63;;;3.19;100.00
55032;BME280;40928;51.076;7.950;2023-02-05T09:34:10;98645.94;;;3.21;100.00
55032;BME280;40928;51.076;7.950;2023-02-05T09:36:35;98646.63;;;3.23;100.00
55032;BME280;40928;51.076;7.950;2023-02-05T09:39:01;98651.59;;;3.26;100.00
55032;BME280;40928;51.076;7.950;2023-02-05T09:41:38;98648.13;;;3.26;100.00
55032;BME280;40928;51.076;7.950;2023-02-05T09:44:14;98647.00;;;3.28;100.00
55032;BME280;40928;51.076;7.950;2023-02-05T09:46:46;98645.16;;;3.29;100.00
55032;BME280;40928;51.076;7.950;2023-02-05T09:52:26;98654.63;;;3.31;100.00
55032;BME280;40928;51.076;7.950;2023-02-05T09:54:57;98645.84;;;3.31;100.00
55032;BME280;40928;51.076;7.950;2023-02-05T09:57:35;98647.50;;;3.32;100.00
55032;BME280;40928;51.076;7.950;2023-02-05T10:00:25;98644.88;;;3.32;100.00
55032;BME280;40928;51.076;7.950;2023-02-05T10:05:31;98653.19;;;3.37;100.00
55032;BME280;40928;51.076;7.950;2023-02-05T10:10:43;98649.56;;;3.38;100.00
55032;BME280;40928;51.076;7.950;2023-02-05T10:13:29;98644.19;;;3.30;100.00
55032;BME280;40928;51.076;7.950;2023-02-05T10:27:08;98636.72;;;3.43;100.00
55032;BME280;40928;51.076;7.950;2023-02-05T10:29:56;98639.22;;;3.45;100.00
55032;BME280;40928;51.076;7.950;2023-02-05T10:32:38;98630.31;;;3.46;100.00
55032;BME280;40928;51.076;7.950;2023-02-05T10:37:55;98644.63;;;3.43;100.00
55032;BME280;40928;51.076;7.950;2023-02-05T10:40:27;98634.91;;;3.44;100.00
55032;BME280;40928;51.076;7.950;2023-02-05T10:43:04;98635.44;;;3.47;100.00
55032;BME280;40928;51.076;7.950;2023-02-05T10:45:34;98637.75;;;3.50;100.00
55032;BME280;40928;51.076;7.950;2023-02-05T10:53:22;98638.44;;;3.53;100.00
55032;BME280;40928;51.076;7.950;2023-02-05T10:55:48;98646.19;;;3.54;100.00
55032;BME280;40928;51.076;7.950;2023-02-05T10:58:37;98641.09;;;3.53;100.00
55032;BME280;40928;51.076;7.950;2023-02-05T11:01:11;98637.09;;;3.48;100.00
55032;BME280;40928;51.076;7.950;2023-02-05T11:03:38;98640.41;;;3.50;100.00
55032;BME280;40928;51.076;7.950;2023-02-05T11:06:09;98640.41;;;3.50;100.00
55032;BME280;40928;51.076;7.950;2023-02-05T11:08:38;98635.94;;;3.51;100.00
55032;BME280;40928;51.076;7.950;2023-02-05T11:11:05;98647.34;;;3.52;100.00
55032;BME280;40928;51.076;7.950;2023-02-05T11:13:32;98642.06;;;3.52;100.00
55032;BME280;40928;51.076;7.950;2023-02-05T11:16:06;98645.53;;;3.52;100.00
55032;BME280;40928;51.076;7.950;2023-02-05T11:18:41;98648.03;;;3.54;100.00
55032;BME280;40928;51.076;7.950;2023-02-05T11:21:08;98652.63;;;3.52;100.00
55032;BME280;40928;51.076;7.950;2023-02-05T11:23:36;98646.19;;;3.54;100.00
55032;BME280;40928;51.076;7.950;2023-02-05T11:26:16;98648.38;;;3.59;100.00
55032;BME280;40928;51.076;7.950;2023-02-05T11:28:42;98635.84;;;3.61;100.00
55032;BME280;40928;51.076;7.950;2023-02-05T11:31:20;98649.44;;;3.66;100.00
55032;BME280;40928;51.076;7.950;2023-02-05T11:33:47;98645.50;;;3.70;100.00
55032;BME280;40928;51.076;7.950;2023-02-05T11:36:23;98645.50;;;3.70;100.00
55032;BME280;40928;51.076;7.950;2023-02-05T11:38:55;98646.69;;;3.76;100.00
55032;BME280;40928;51.076;7.950;2023-02-05T11:43:52;98647.22;;;3.79;100.00
55032;BME280;40928;51.076;7.950;2023-02-05T11:46:23;98653.69;;;3.85;100.00
55032;BME280;40928;51.076;7.950;2023-02-05T11:48:55;98634.84;;;3.80;100.00
55032;BME280;40928;51.076;7.950;2023-02-05T11:51:42;98641.53;;;3.92;100.00
55032;BME280;40928;51.076;7.950;2023-02-05T11:54:19;98651.44;;;3.99;100.00
55032;BME280;40928;51.076;7.950;2023-02-05T11:59:24;98647.53;;;4.03;100.00
55032;BME280;40928;51.076;7.950;2023-02-05T12:01:50;98652.66;;;4.04;100.00
55032;BME280;40928;51.076;7.950;2023-02-05T12:04:18;98644.41;;;4.07;100.00
55032;BME280;40928;51.076;7.950;2023-02-05T12:06:57;98642.28;;;4.11;100.00
55032;BME280;40928;51.076;7.950;2023-02-05T12:09:25;98641.16;;;4.14;100.00
55032;BME280;40928;51.076;7.950;2023-02-05T12:14:45;98637.88;;;4.20;100.00
55032;BME280;40928;51.076;7.950;2023-02-05T12:17:33;98634.91;;;4.23;100.00
55032;BME280;40928;51.076;7.950;2023-02-05T12:33:47;98638.13;;;4.08;100.00
55032;BME280;40928;51.076;7.950;2023-02-05T12:39:04;98641.66;;;4.17;100.00
55032;BME280;40928;51.076;7.950;2023-02-05T12:53:16;98638.25;;;3.99;100.00
55032;BME280;40928;51.076;7.950;2023-02-05T12:58:42;98641.09;;;4.05;100.00
55032;BME280;40928;51.076;7.950;2023-02-05T13:01:16;98644.25;;;4.09;100.00
55032;BME280;40928;51.076;7.950;2023-02-05T13:03:48;98645.06;;;4.09;100.00
55032;BME280;40928;51.076;7.950;2023-02-05T13:06:53;98644.78;;;4.13;100.00
55032;BME280;40928;51.076;7.950;2023-02-05T13:09:28;98640.16;;;4.15;100.00
55032;BME280;40928;51.076;7.950;2023-02-05T13:11:58;98646.44;;;4.14;100.00
55032;BME280;40928;51.076;7.950;2023-02-05T13:14:35;98638.50;;;4.14;100.00
55032;BME280;40928;51.076;7.950;2023-02-05T13:17:09;98646.63;;;4.20;100.00
55032;BME280;40928;51.076;7.950;2023-02-05T13:19:45;98646.47;;;4.22;100.00
55032;BME280;40928;51.076;7.950;2023-02-05T13:22:18;98642.31;;;4.19;100.00
55032;BME280;40928;51.076;7.950;2023-02-05T13:25:24;98642.69;;;4.24;100.00
55032;BME280;40928;51.076;7.950;2023-02-05T13:27:59;98640.19;;;4.23;100.00
55032;BME280;40928;51.076;7.950;2023-02-05T13:30:49;98643.63;;;4.15;100.00
55032;BME280;40928;51.076;7.950;2023-02-05T13:33:17;98655.53;;;4.19;100.00
55032;BME280;40928;51.076;7.950;2023-02-05T13:49:36;98677.78;;;4.08;100.00
55032;BME280;40928;51.076;7.950;2023-02-05T14:00:38;98703.34;;;4.00;100.00
55032;BME280;40928;51.076;7.950;2023-02-05T14:03:05;98710.25;;;3.92;100.00
55032;BME280;40928;51.076;7.950;2023-02-05T14:05:38;98714.53;;;3.93;100.00
55032;BME280;40928;51.076;7.950;2023-02-05T14:08:19;98729.25;;;3.96;100.00
55032;BME280;40928;51.076;7.950;2023-02-05T14:10:55;98728.06;;;3.90;100.00
55032;BME280;40928;51.076;7.950;2023-02-05T14:13:28;98741.75;;;3.86;100.00
55032;BME280;40928;51.076;7.950;2023-02-05T14:15:58;98753.06;;;3.78;100.00
55032;BME280;40928;51.076;7.950;2023-02-05T14:18:50;98746.25;;;3.75;100.00
55032;BME280;40928;51.076;7.950;2023-02-05T14:29:39;98767.19;;;3.50;100.00
55032;BME280;40928;51.076;7.950;2023-02-05T14:35:07;98772.75;;;3.47;100.00
55032;BME280;40928;51.076;7.950;2023-02-05T14:37:49;98776.69;;;3.43;100.00
55032;BME280;40928;51.076;7.950;2023-02-05T14:40:33;98770.88;;;3.40;100.00
55032;BME280;40928;51.076;7.950;2023-02-05T14:43:14;98766.28;;;3.42;100.00
55032;BME280;40928;51.076;7.950;2023-02-05T14:45:46;98779.63;;;3.40;100.00
55032;BME280;40928;51.076;7.950;2023-02-05T14:48:30;98774.25;;;3.32;100.00
55032;BME280;40928;51.076;7.950;2023-02-05T14:51:20;98776.59;;;3.35;100.00
55032;BME280;40928;51.076;7.950;2023-02-05T14:54:19;98777.06;;;3.30;100.00
55032;BME280;40928;51.076;7.950;2023-02-05T14:56:48;98787.22;;;3.25;100.00
55032;BME280;40928;51.076;7.950;2023-02-05T14:59:28;98782.78;;;3.26;100.00
55032;BME280;40928;51.076;7.950;2023-02-05T15:01:57;98799.28;;;3.28;100.00
55032;BME280;40928;51.076;7.950;2023-02-05T15:04:41;98806.00;;;3.22;100.00
55032;BME280;40928;51.076;7.950;2023-02-05T15:07:19;98800.59;;;3.24;100.00
55032;BME280;40928;51.076;7.950;2023-02-05T15:09:49;98799.91;;;3.22;100.00
55032;BME280;40928;51.076;7.950;2023-02-05T15:14:56;98815.03;;;3.19;100.00
55032;BME280;40928;51.076;7.950;2023-02-05T15:19:56;98820.78;;;3.15;100.00
55032;BME280;40928;51.076;7.950;2023-02-05T15:22:34;98812.16;;;3.13;100.00
55032;BME280;40928;51.076;7.950;2023-02-05T15:25:01;98806.72;;;3.14;100.00
55032;BME280;40928;51.076;7.950;2023-02-05T15:27:39;98802.66;;;3.20;100.00
55032;BME280;40928;51.076;7.950;2023-02-05T15:30:07;98792.25;;;3.18;100.00
55032;BME280;40928;51.076;7.950;2023-02-05T15:32:46;98802.66;;;3.20;100.00